Cleveland, Ohio
Traffic Map
Current Weather Conditions
Cleveland, Ohio
Overcast
Overcast

Feels Like: -6°
Wind Chill: -6° Ceiling: 1400
Heat Index: Visibility: 10mi
Dew Point: -3° Wind: 15mph
Humidity: 82% Direction: 240° (WSW)
Pressure: 29.58in Gusts: 0mph
Raw Report DataKBKL 092036Z 24013KT 10SM OVC014 00/M03 A2958 RMK AO2 SNE14 P0000 T00001028
Traffic Incident Summary
Active as of:
Severity:
Category:
InformationThere was an issue retrieving the traffic information for this location. Please try a different location or try again shortly.
Advertisements
Track Severe Weather on mobile